Time;durP1;ratioP1;P1;durP2;ratioP2;P2;SDS_P1;SDS_P2;PMS_P1;PMS_P2;Temp;Humidity;BMP_temperature;BMP_pressure;BME280_temperature;BME280_humidity;BME280_pressure;Samples;Min_cycle;Max_cycle;Signal;HPM_P1;HPM_P2
2024/02/15 00:01:00;;;;;;;;;;;;;;;8.92;100.00;96163.50;10449359;28;1764;-64
2024/02/15 00:06:03;;;;;;;;;;;;;;;8.92;100.00;96172.34;10441524;28;1809;-63
2024/02/15 00:11:05;;;;;;;;;;;;;;;8.94;100.00;96166.72;10440749;28;1479;-65
2024/02/15 00:16:08;;;;;;;;;;;;;;;8.92;100.00;96156.25;10449351;28;1914;-64
2024/02/15 00:21:11;;;;;;;;;;;;;;;8.86;100.00;96154.59;10427358;28;1783;-63
2024/02/15 00:26:14;;;;;;;;;;;;;;;8.81;100.00;96156.41;10446855;28;2613;-63
2024/02/15 00:31:17;;;;;;;;;;;;;;;8.70;100.00;96150.13;10439451;28;1586;-65
2024/02/15 00:36:19;;;;;;;;;;;;;;;8.68;100.00;96151.47;10452240;28;1918;-64
2024/02/15 00:41:22;;;;;;;;;;;;;;;8.65;100.00;96150.91;10440856;28;1407;-64
2024/02/15 00:46:27;;;;;;;;;;;;;;;8.61;100.00;96144.41;10441459;28;1582;-64
2024/02/15 00:51:30;;;;;;;;;;;;;;;8.60;100.00;96150.84;10450490;28;1529;-65
2024/02/15 00:56:32;;;;;;;;;;;;;;;8.61;100.00;96157.00;10447708;28;1918;-64
2024/02/15 01:01:37;;;;;;;;;;;;;;;8.57;100.00;96147.84;10449593;28;1502;-63
2024/02/15 01:06:41;;;;;;;;;;;;;;;8.60;100.00;96158.09;10447607;28;2431;-64
2024/02/15 01:11:44;;;;;;;;;;;;;;;8.68;100.00;96157.63;10445732;28;1580;-67
2024/02/15 01:16:47;;;;;;;;;;;;;;;8.74;100.00;96158.50;10447005;28;1985;-64
2024/02/15 01:21:50;;;;;;;;;;;;;;;8.70;100.00;96160.84;10451350;28;1635;-63
2024/02/15 01:26:53;;;;;;;;;;;;;;;8.60;100.00;96144.69;10448262;28;1587;-64
2024/02/15 01:31:55;;;;;;;;;;;;;;;8.51;100.00;96149.66;10451186;28;1665;-65
2024/02/15 01:36:58;;;;;;;;;;;;;;;8.46;100.00;96144.28;10438301;28;1975;-64
2024/02/15 01:42:03;;;;;;;;;;;;;;;8.27;100.00;96149.09;10443198;28;1518;-65
2024/02/15 01:47:05;;;;;;;;;;;;;;;8.04;100.00;96144.78;10456160;28;1618;-63
2024/02/15 01:52:08;;;;;;;;;;;;;;;7.95;100.00;96148.13;10447315;28;1681;-63
2024/02/15 01:57:11;;;;;;;;;;;;;;;7.91;100.00;96139.81;10438916;28;1993;-64
2024/02/15 02:02:13;;;;;;;;;;;;;;;7.98;100.00;96139.63;10440972;28;1614;-63
2024/02/15 02:07:16;;;;;;;;;;;;;;;8.17;100.00;96134.78;10440885;28;2779;-65
2024/02/15 02:12:19;;;;;;;;;;;;;;;8.34;100.00;96130.16;10446482;28;1674;-65
2024/02/15 02:17:21;;;;;;;;;;;;;;;8.38;100.00;96126.75;10444226;28;1895;-64
2024/02/15 02:22:24;;;;;;;;;;;;;;;8.43;100.00;96126.00;10444039;28;1565;-63
2024/02/15 02:27:27;;;;;;;;;;;;;;;8.45;100.00;96121.19;10441973;28;1808;-65
2024/02/15 02:32:29;;;;;;;;;;;;;;;8.50;100.00;96129.28;10451453;28;1650;-64
2024/02/15 02:37:36;;;;;;;;;;;;;;;8.53;100.00;96123.44;10441963;28;1926;-64
2024/02/15 02:42:39;;;;;;;;;;;;;;;8.45;100.00;96126.53;10451210;28;1665;-66
2024/02/15 02:47:42;;;;;;;;;;;;;;;8.45;100.00;96126.53;10442044;28;2316;-75
2024/02/15 02:52:44;;;;;;;;;;;;;;;8.49;100.00;96122.31;10438223;28;1626;-75
2024/02/15 02:57:47;;;;;;;;;;;;;;;8.52;100.00;96115.63;10448841;28;1906;-64
2024/02/15 03:02:49;;;;;;;;;;;;;;;8.48;100.00;96114.53;10447897;28;1644;-65
2024/02/15 03:07:52;;;;;;;;;;;;;;;8.42;100.00;96112.88;10419582;28;1628;-64
2024/02/15 03:12:55;;;;;;;;;;;;;;;8.38;100.00;96120.56;10432834;28;1621;-70
2024/02/15 03:17:58;;;;;;;;;;;;;;;8.27;100.00;96113.44;10444087;28;1914;-64
2024/02/15 03:23:00;;;;;;;;;;;;;;;8.21;100.00;96117.16;10438664;28;1617;-64
2024/02/15 03:28:03;;;;;;;;;;;;;;;8.14;100.00;96114.63;10444599;28;1673;-63
2024/02/15 03:33:06;;;;;;;;;;;;;;;8.08;100.00;96127.19;10441991;28;2303;-64
2024/02/15 03:38:09;;;;;;;;;;;;;;;8.04;100.00;96117.22;10436532;28;1989;-64
2024/02/15 03:43:11;;;;;;;;;;;;;;;8.00;100.00;96124.91;10444288;28;1688;-65
2024/02/15 03:48:14;;;;;;;;;;;;;;;8.00;100.00;96129.47;10443751;28;1624;-65
2024/02/15 03:53:17;;;;;;;;;;;;;;;7.99;100.00;96123.31;10437461;28;1709;-64
2024/02/15 03:58:19;;;;;;;;;;;;;;;7.85;100.00;96132.75;10443627;28;1987;-64
2024/02/15 04:03:22;;;;;;;;;;;;;;;7.77;100.00;96131.31;10446850;28;1931;-64
2024/02/15 04:08:24;;;;;;;;;;;;;;;7.76;100.00;96131.53;10439787;28;1613;-64
2024/02/15 04:13:27;;;;;;;;;;;;;;;7.75;100.00;96122.72;10441911;28;1741;-65
2024/02/15 04:18:32;;;;;;;;;;;;;;;7.71;100.00;96131.50;10448644;28;2268;-69
2024/02/15 04:23:35;;;;;;;;;;;;;;;7.62;100.00;96136.44;10452472;28;1479;-62
2024/02/15 04:28:38;;;;;;;;;;;;;;;7.56;100.00;96135.56;10449769;28;1545;-64
2024/02/15 04:33:41;;;;;;;;;;;;;;;7.48;100.00;96144.00;10443791;28;1804;-69
2024/02/15 04:38:44;;;;;;;;;;;;;;;7.37;100.00;96136.06;10447505;28;1988;-71
2024/02/15 04:43:46;;;;;;;;;;;;;;;7.25;100.00;96136.97;10453988;28;1522;-70
2024/02/15 04:48:50;;;;;;;;;;;;;;;7.14;100.00;96137.06;10454970;28;1635;-64
2024/02/15 04:53:52;;;;;;;;;;;;;;;6.96;100.00;96141.56;10447498;28;1491;-66
2024/02/15 04:58:55;;;;;;;;;;;;;;;6.89;100.00;96140.91;10455581;28;1922;-67
2024/02/15 05:03:57;;;;;;;;;;;;;;;6.79;100.00;96140.72;10443837;28;1542;-68
2024/02/15 05:09:00;;;;;;;;;;;;;;;6.72;100.00;96134.72;10452283;28;1554;-74
2024/02/15 05:14:04;;;;;;;;;;;;;;;6.67;100.00;96139.97;10448140;28;1613;-71
2024/02/15 05:19:07;;;;;;;;;;;;;;;6.60;100.00;96134.78;10449229;28;1988;-65
2024/02/15 05:24:10;;;;;;;;;;;;;;;6.47;100.00;96122.53;10447518;28;1512;-65
2024/02/15 05:29:12;;;;;;;;;;;;;;;6.36;100.00;96130.59;10443528;28;1518;-64
2024/02/15 05:34:14;;;;;;;;;;;;;;;6.25;100.00;96131.47;10444798;28;1717;-64
2024/02/15 05:39:21;;;;;;;;;;;;;;;6.09;100.00;96133.00;10443508;28;2050;-64
2024/02/15 05:44:25;;;;;;;;;;;;;;;5.99;100.00;96132.81;10444914;28;1475;-64
2024/02/15 05:49:27;;;;;;;;;;;;;;;5.84;100.00;96139.38;10447252;28;1596;-63
2024/02/15 05:54:30;;;;;;;;;;;;;;;5.82;100.00;96136.16;10440377;28;1915;-64
2024/02/15 05:59:32;;;;;;;;;;;;;;;5.72;100.00;96132.44;10443249;28;2397;-63
2024/02/15 06:04:35;;;;;;;;;;;;;;;5.60;100.00;96132.50;10441811;28;1762;-63
2024/02/15 06:09:39;;;;;;;;;;;;;;;5.51;100.00;96126.69;10445828;28;1808;-63
2024/02/15 06:14:42;;;;;;;;;;;;;;;5.50;100.00;96132.25;10430442;28;1967;-63
2024/02/15 06:19:45;;;;;;;;;;;;;;;5.56;100.00;96141.97;10450637;28;1612;-63
2024/02/15 06:24:47;;;;;;;;;;;;;;;5.68;100.00;96140.13;10447958;28;1590;-64
2024/02/15 06:40:33;;;;;;;;;;;;;;;6.50;100.00;96156.78;10448052;28;1557;-68
2024/02/15 06:45:36;;;;;;;;;;;;;;;6.77;100.00;96148.19;10447537;28;1724;-72
2024/02/15 06:50:40;;;;;;;;;;;;;;;7.05;100.00;96156.16;10450352;28;1595;-65
2024/02/15 06:55:42;;;;;;;;;;;;;;;7.36;100.00;96151.31;10440685;28;1914;-64
2024/02/15 07:00:45;;;;;;;;;;;;;;;7.52;100.00;96155.03;10445373;28;1544;-65
2024/02/15 07:05:48;;;;;;;;;;;;;;;7.68;100.00;96150.72;10444969;28;1686;-65
2024/02/15 07:10:51;;;;;;;;;;;;;;;7.79;100.00;96147.13;10453833;28;1556;-64
2024/02/15 07:15:53;;;;;;;;;;;;;;;7.88;100.00;96150.97;10451280;28;1926;-64
2024/02/15 07:20:56;;;;;;;;;;;;;;;8.04;100.00;96152.00;10445650;28;1490;-64
2024/02/15 07:25:59;;;;;;;;;;;;;;;8.21;100.00;96142.06;10424921;28;1867;-67
2024/02/15 07:31:02;;;;;;;;;;;;;;;8.32;100.00;96126.91;10439331;28;2467;-65
2024/02/15 07:36:05;;;;;;;;;;;;;;;8.54;100.00;96134.97;10441687;28;1910;-65
2024/02/15 07:41:07;;;;;;;;;;;;;;;8.71;100.00;96130.31;10432475;28;1494;-64
2024/02/15 07:46:09;;;;;;;;;;;;;;;8.88;100.00;96133.69;10447133;28;1653;-64
2024/02/15 07:51:12;;;;;;;;;;;;;;;8.99;100.00;96129.25;10443848;28;1736;-65
2024/02/15 07:56:15;;;;;;;;;;;;;;;8.93;100.00;96130.25;10460586;28;1989;-63
2024/02/15 08:01:17;;;;;;;;;;;;;;;8.89;100.00;96115.72;10445164;28;1527;-63
2024/02/15 08:06:20;;;;;;;;;;;;;;;8.82;100.00;96115.94;10443629;28;1587;-64
2024/02/15 08:11:23;;;;;;;;;;;;;;;8.88;100.00;96114.13;10447766;28;1601;-64
2024/02/15 08:16:27;;;;;;;;;;;;;;;8.90;100.00;96112.00;10430876;28;1906;-63
2024/02/15 08:21:32;;;;;;;;;;;;;;;9.02;100.00;96109.94;10440773;28;1486;-65
2024/02/15 08:26:35;;;;;;;;;;;;;;;9.12;100.00;96096.63;10452889;28;1452;-65
2024/02/15 08:31:38;;;;;;;;;;;;;;;9.25;100.00;96099.97;10445600;28;2576;-67
2024/02/15 08:36:40;;;;;;;;;;;;;;;9.40;100.00;96097.38;10440534;28;1985;-65
2024/02/15 08:41:43;;;;;;;;;;;;;;;9.47;100.00;96090.72;10442035;28;1602;-64
2024/02/15 08:46:46;;;;;;;;;;;;;;;9.64;100.00;96089.75;10445866;28;1494;-66
2024/02/15 08:51:50;;;;;;;;;;;;;;;9.86;100.00;96086.91;10438624;28;1534;-65
2024/02/15 08:56:53;;;;;;;;;;;;;;;10.03;100.00;96085.66;10447082;28;1991;-65
2024/02/15 09:01:56;;;;;;;;;;;;;;;10.33;100.00;96083.38;10453112;28;1442;-63
2024/02/15 09:06:58;;;;;;;;;;;;;;;10.46;100.00;96086.38;10441526;28;1622;-64
2024/02/15 09:12:00;;;;;;;;;;;;;;;10.52;100.00;96081.81;10450500;28;2492;-65
2024/02/15 09:17:07;;;;;;;;;;;;;;;10.68;100.00;96088.81;10450226;28;1985;-72
2024/02/15 09:22:10;;;;;;;;;;;;;;;10.76;100.00;96069.50;10448777;28;1584;-68
2024/02/15 09:27:12;;;;;;;;;;;;;;;10.94;100.00;96065.50;10463523;28;1610;-66
2024/02/15 09:32:14;;;;;;;;;;;;;;;10.91;100.00;96059.81;10453735;28;1685;-64
2024/02/15 09:37:17;;;;;;;;;;;;;;;10.99;100.00;96056.59;10455510;28;1906;-63
2024/02/15 09:42:19;;;;;;;;;;;;;;;11.03;100.00;96055.00;10455496;28;1542;-63
2024/02/15 09:47:23;;;;;;;;;;;;;;;11.14;100.00;96045.84;10447465;28;1471;-64
2024/02/15 09:52:26;;;;;;;;;;;;;;;11.30;100.00;96035.84;10450269;28;1599;-64
2024/02/15 09:57:29;;;;;;;;;;;;;;;11.42;100.00;96032.88;10450850;28;1957;-65
2024/02/15 10:02:31;;;;;;;;;;;;;;;11.60;100.00;96024.22;10448817;28;2376;-70
2024/02/15 10:07:33;;;;;;;;;;;;;;;11.53;100.00;96024.50;10446790;28;1589;-72
2024/02/15 10:12:36;;;;;;;;;;;;;;;11.69;100.00;96025.25;10441395;28;1736;-67
2024/02/15 10:17:38;;;;;;;;;;;;;;;11.81;100.00;96030.38;10444426;28;1983;-70
2024/02/15 10:22:41;;;;;;;;;;;;;;;11.77;100.00;96019.34;10444417;28;1566;-66
2024/02/15 10:27:45;;;;;;;;;;;;;;;11.84;100.00;96019.88;10452280;28;1467;-64
2024/02/15 10:32:49;;;;;;;;;;;;;;;11.88;100.00;96004.75;10440796;28;1631;-64
2024/02/15 10:37:52;;;;;;;;;;;;;;;11.97;100.00;96001.50;10446250;28;1898;-64
2024/02/15 10:42:56;;;;;;;;;;;;;;;12.16;100.00;95991.72;10437430;28;1431;-72
2024/02/15 10:47:59;;;;;;;;;;;;;;;12.09;100.00;95983.94;10458492;28;1478;-64
2024/02/15 10:53:04;;;;;;;;;;;;;;;12.30;100.00;95973.03;10440374;28;1476;-66
2024/02/15 10:58:07;;;;;;;;;;;;;;;12.42;100.00;95970.78;10449931;28;2621;-64
2024/02/15 11:03:09;;;;;;;;;;;;;;;12.50;100.00;95964.00;10436811;28;1577;-65
2024/02/15 11:08:12;;;;;;;;;;;;;;;12.70;100.00;95951.16;10445726;28;1491;-66
2024/02/15 11:13:14;;;;;;;;;;;;;;;12.81;100.00;95941.09;10445006;28;1843;-65
2024/02/15 11:18:17;;;;;;;;;;;;;;;13.00;100.00;95938.50;10443364;28;1924;-72
2024/02/15 11:23:19;;;;;;;;;;;;;;;13.23;100.00;95931.53;10450799;28;1556;-64
2024/02/15 11:28:29;;;;;;;;;;;;;;;13.34;100.00;95932.22;10446949;28;1639;-64
2024/02/15 11:33:31;;;;;;;;;;;;;;;13.44;100.00;95918.63;10441729;28;1571;-65
2024/02/15 11:38:35;;;;;;;;;;;;;;;13.59;100.00;95909.53;10440712;28;1918;-65
2024/02/15 11:43:40;;;;;;;;;;;;;;;13.81;100.00;95907.09;10447162;28;1463;-64
2024/02/15 11:48:42;;;;;;;;;;;;;;;13.89;100.00;95895.63;10441021;28;1529;-64
2024/02/15 11:53:45;;;;;;;;;;;;;;;13.73;100.00;95886.91;10427638;28;1439;-66
2024/02/15 11:59:02;;;;;;;;;;;;;;;13.72;100.00;95866.41;10444867;28;3439;-76
2024/02/15 12:20:24;;;;;;;;;;;;;;;14.30;100.00;95857.16;10367232;28;1979;-65
2024/02/15 12:25:28;;;;;;;;;;;;;;;14.44;100.00;95841.81;10437365;28;1793;-69
2024/02/15 12:30:30;;;;;;;;;;;;;;;14.39;100.00;95838.38;10442717;28;1685;-69
2024/02/15 12:35:32;;;;;;;;;;;;;;;14.50;100.00;95827.09;10448414;28;1630;-67
2024/02/15 12:40:35;;;;;;;;;;;;;;;14.52;100.00;95827.63;10443511;28;2834;-67
2024/02/15 12:45:37;;;;;;;;;;;;;;;14.49;100.00;95827.41;10446930;28;1514;-65
2024/02/15 12:50:39;;;;;;;;;;;;;;;14.56;100.00;95819.72;10456663;28;1662;-71
2024/02/15 12:55:42;;;;;;;;;;;;;;;14.84;100.00;95813.25;10449539;28;1761;-69
2024/02/15 13:00:44;;;;;;;;;;;;;;;15.11;100.00;95801.63;10445575;28;1989;-72
2024/02/15 13:05:47;;;;;;;;;;;;;;;15.06;100.00;95793.59;10451369;28;1515;-68
2024/02/15 13:10:51;;;;;;;;;;;;;;;15.03;100.00;95791.50;10429033;28;1434;-71
2024/02/15 13:15:53;;;;;;;;;;;;;;;14.88;100.00;95780.97;10447800;28;1979;-74
2024/02/15 13:20:56;;;;;;;;;;;;;;;14.87;100.00;95782.06;10454415;28;2424;-72
2024/02/15 13:26:04;;;;;;;;;;;;;;;14.81;100.00;95778.66;10453559;28;2811;-64
2024/02/15 13:31:06;;;;;;;;;;;;;;;14.92;100.00;95765.75;10449531;28;1682;-65
2024/02/15 13:36:10;;;;;;;;;;;;;;;14.97;100.00;95776.47;10455309;28;1574;-66
2024/02/15 13:41:13;;;;;;;;;;;;;;;14.88;100.00;95776.34;10449233;28;1918;-67
2024/02/15 13:46:19;;;;;;;;;;;;;;;14.52;100.00;95765.41;10448369;28;1542;-66
2024/02/15 13:51:22;;;;;;;;;;;;;;;14.41;100.00;95766.66;10430358;28;1569;-65
2024/02/15 13:56:25;;;;;;;;;;;;;;;14.60;100.00;95753.91;10446621;28;1452;-65
2024/02/15 14:01:28;;;;;;;;;;;;;;;14.54;100.00;95755.09;10452327;28;1909;-65
2024/02/15 14:06:30;;;;;;;;;;;;;;;14.46;100.00;95746.84;10442579;28;3292;-64
2024/02/15 14:11:33;;;;;;;;;;;;;;;14.49;100.00;95751.69;10451666;28;1562;-65
2024/02/15 14:16:36;;;;;;;;;;;;;;;14.52;100.00;95751.09;10444643;28;1501;-64
2024/02/15 14:21:42;;;;;;;;;;;;;;;14.47;100.00;95754.69;10453501;28;1611;-64
2024/02/15 14:26:44;;;;;;;;;;;;;;;14.39;100.00;95758.06;10439368;28;1899;-66
2024/02/15 14:37:09;;;;;;;;;;;;;;;14.35;100.00;95757.03;10449409;28;1918;-68
2024/02/15 14:42:12;;;;;;;;;;;;;;;14.30;100.00;95746.31;10448722;28;1495;-68
2024/02/15 14:47:18;;;;;;;;;;;;;;;14.16;100.00;95748.19;10445840;28;1879;-65
2024/02/15 14:52:20;;;;;;;;;;;;;;;14.23;100.00;95748.59;10442304;28;2731;-65
2024/02/15 14:57:24;;;;;;;;;;;;;;;14.21;100.00;95748.91;10450143;28;1979;-64
2024/02/15 15:02:30;;;;;;;;;;;;;;;14.05;100.00;95748.34;10451465;28;1613;-64
2024/02/15 15:12:53;;;;;;;;;;;;;;;13.83;100.00;95750.88;10444325;28;1496;-64
2024/02/15 15:17:56;;;;;;;;;;;;;;;13.72;100.00;95739.44;10445699;28;1910;-69
2024/02/15 15:23:00;;;;;;;;;;;;;;;13.66;100.00;95739.81;10447463;28;1559;-71
2024/02/15 15:28:05;;;;;;;;;;;;;;;13.71;100.00;95731.63;10442202;28;1689;-68
2024/02/15 15:33:08;;;;;;;;;;;;;;;13.67;100.00;95733.28;10445177;28;2363;-70
2024/02/15 15:38:11;;;;;;;;;;;;;;;13.58;100.00;95726.97;10448301;28;1983;-78
2024/02/15 15:43:14;;;;;;;;;;;;;;;13.48;100.00;95733.31;10450192;28;1482;-64
2024/02/15 15:48:17;;;;;;;;;;;;;;;13.34;100.00;95727.84;10440144;28;1890;-65
2024/02/15 15:53:19;;;;;;;;;;;;;;;13.17;100.00;95730.25;10435995;28;1452;-65
2024/02/15 15:58:23;;;;;;;;;;;;;;;13.00;100.00;95725.31;10436754;28;1910;-65
2024/02/15 16:03:27;;;;;;;;;;;;;;;12.81;100.00;95725.28;10452341;28;1451;-67
2024/02/15 16:08:30;;;;;;;;;;;;;;;12.62;100.00;95725.25;10448598;28;1665;-65
2024/02/15 16:13:33;;;;;;;;;;;;;;;12.49;100.00;95725.94;10446088;28;1608;-66
2024/02/15 16:18:37;;;;;;;;;;;;;;;12.31;100.00;95727.47;10445672;28;1917;-65
2024/02/15 16:23:40;;;;;;;;;;;;;;;12.19;100.00;95729.75;10455063;28;2390;-64
2024/02/15 16:28:42;;;;;;;;;;;;;;;11.95;100.00;95734.28;10448561;28;1517;-64
2024/02/15 16:33:49;;;;;;;;;;;;;;;11.81;100.00;95734.91;10455438;28;1453;-65
2024/02/15 16:38:52;;;;;;;;;;;;;;;11.78;100.00;95730.09;10454332;28;1969;-64
2024/02/15 16:43:56;;;;;;;;;;;;;;;11.50;100.00;95728.13;10451501;28;1486;-65
2024/02/15 16:48:59;;;;;;;;;;;;;;;11.22;100.00;95727.78;10451965;28;1505;-65
2024/02/15 16:54:02;;;;;;;;;;;;;;;11.08;100.00;95732.97;10450631;28;1558;-64
2024/02/15 16:59:04;;;;;;;;;;;;;;;10.82;100.00;95735.00;10457615;28;1977;-65
2024/02/15 17:04:07;;;;;;;;;;;;;;;10.79;100.00;95738.22;10447502;28;1522;-64
2024/02/15 17:09:10;;;;;;;;;;;;;;;10.73;100.00;95736.63;10425891;28;1695;-65
2024/02/15 17:14:14;;;;;;;;;;;;;;;10.58;100.00;95739.38;10454854;28;1483;-64
2024/02/15 17:19:16;;;;;;;;;;;;;;;10.60;100.00;95737.22;10446143;28;2686;-64
2024/02/15 17:24:19;;;;;;;;;;;;;;;10.57;100.00;95745.84;10446740;28;1847;-69
2024/02/15 17:29:22;;;;;;;;;;;;;;;10.56;100.00;95746.94;10446341;28;1554;-64
2024/02/15 17:34:25;;;;;;;;;;;;;;;10.34;100.00;95747.22;10451039;28;1537;-64
2024/02/15 17:39:28;;;;;;;;;;;;;;;10.33;100.00;95742.13;10446559;28;2018;-63
2024/02/15 17:44:31;;;;;;;;;;;;;;;10.23;100.00;95749.13;10454086;28;1906;-65
2024/02/15 17:49:33;;;;;;;;;;;;;;;10.09;100.00;95740.00;10450041;28;1618;-73
2024/02/15 17:54:37;;;;;;;;;;;;;;;9.96;100.00;95744.03;10451661;28;1467;-74
2024/02/15 17:59:39;;;;;;;;;;;;;;;9.91;100.00;95743.25;10456804;28;2019;-67
2024/02/15 18:04:42;;;;;;;;;;;;;;;9.79;100.00;95745.38;10445727;28;1487;-64
2024/02/15 18:09:46;;;;;;;;;;;;;;;9.94;100.00;95742.72;10444645;28;1470;-66
2024/02/15 18:14:50;;;;;;;;;;;;;;;9.92;100.00;95726.03;10452603;28;1499;-63
2024/02/15 18:19:52;;;;;;;;;;;;;;;9.74;100.00;95728.22;10452158;28;1961;-64
2024/02/15 18:24:55;;;;;;;;;;;;;;;9.68;100.00;95731.19;10443825;28;1474;-64
2024/02/15 18:29:58;;;;;;;;;;;;;;;9.49;100.00;95722.84;10451809;28;1598;-64
2024/02/15 18:35:01;;;;;;;;;;;;;;;9.28;100.00;95727.38;10443619;28;1636;-69
2024/02/15 18:40:06;;;;;;;;;;;;;;;9.21;100.00;95732.19;10439611;28;1918;-65
2024/02/15 18:45:24;;;;;;;;;;;;;;;9.08;100.00;95730.03;10447976;28;1874;-65
2024/02/15 18:50:26;;;;;;;;;;;;;;;9.05;100.00;95717.97;10454632;28;1467;-64
2024/02/15 18:55:29;;;;;;;;;;;;;;;9.08;100.00;95716.63;10442966;28;1595;-66
2024/02/15 19:00:33;;;;;;;;;;;;;;;9.03;100.00;95720.09;10448756;28;2341;-65
2024/02/15 19:05:47;;;;;;;;;;;;;;;8.96;100.00;95711.50;10439650;28;1547;-66
2024/02/15 19:10:49;;;;;;;;;;;;;;;9.01;100.00;95706.16;10451232;28;1551;-63
2024/02/15 19:15:55;;;;;;;;;;;;;;;8.96;100.00;95708.00;10442566;28;1687;-65
2024/02/15 19:20:58;;;;;;;;;;;;;;;8.98;100.00;95706.69;10445043;28;1987;-63
2024/02/15 19:26:00;;;;;;;;;;;;;;;8.84;100.00;95700.19;10452530;28;1599;-65
2024/02/15 19:31:03;;;;;;;;;;;;;;;8.63;100.00;95700.13;10450794;28;1810;-69
2024/02/15 19:36:06;;;;;;;;;;;;;;;8.56;100.00;95704.94;10448712;28;1507;-65
2024/02/15 19:41:09;;;;;;;;;;;;;;;8.65;100.00;95708.75;10448047;28;1917;-64
2024/02/15 19:46:11;;;;;;;;;;;;;;;8.57;100.00;95700.38;10440243;28;1497;-64
2024/02/15 19:51:14;;;;;;;;;;;;;;;8.64;100.00;95691.03;10444506;28;1782;-64
2024/02/15 19:56:16;;;;;;;;;;;;;;;8.47;100.00;95693.13;10441196;28;2983;-64
2024/02/15 20:01:25;;;;;;;;;;;;;;;8.36;100.00;95694.16;10447122;28;1911;-65
2024/02/15 20:06:27;;;;;;;;;;;;;;;8.33;100.00;95689.25;10442308;28;1728;-64
2024/02/15 20:11:31;;;;;;;;;;;;;;;8.20;100.00;95695.09;10450708;28;1426;-66
2024/02/15 20:16:34;;;;;;;;;;;;;;;8.13;100.00;95695.34;10436566;28;1709;-64
2024/02/15 20:21:36;;;;;;;;;;;;;;;8.01;100.00;95702.75;10439289;28;1914;-67
2024/02/15 20:26:39;;;;;;;;;;;;;;;7.96;100.00;95708.09;10441375;28;1527;-65
2024/02/15 20:31:42;;;;;;;;;;;;;;;7.89;100.00;95697.63;10438423;28;1685;-65
2024/02/15 20:36:44;;;;;;;;;;;;;;;7.73;100.00;95701.25;10438538;28;2831;-64
2024/02/15 20:41:48;;;;;;;;;;;;;;;7.71;100.00;95684.66;10436266;28;1991;-67
2024/02/15 20:46:51;;;;;;;;;;;;;;;7.57;100.00;95689.63;10435542;28;1471;-64
2024/02/15 20:51:54;;;;;;;;;;;;;;;7.48;100.00;95683.94;10441892;28;1555;-65
2024/02/15 20:56:57;;;;;;;;;;;;;;;7.30;100.00;95687.81;10444290;28;1922;-64
2024/02/15 21:02:00;;;;;;;;;;;;;;;7.23;100.00;95686.41;10450996;28;1906;-66
2024/02/15 21:07:03;;;;;;;;;;;;;;;7.22;100.00;95677.59;10459041;28;1458;-64
2024/02/15 21:12:09;;;;;;;;;;;;;;;7.23;100.00;95675.72;10447431;28;1503;-65
2024/02/15 21:17:11;;;;;;;;;;;;;;;7.11;100.00;95681.22;10449289;28;1494;-65
2024/02/15 21:22:13;;;;;;;;;;;;;;;6.99;100.00;95684.03;10450135;28;2872;-66
2024/02/15 21:27:16;;;;;;;;;;;;;;;6.88;100.00;95674.34;10451128;28;1620;-66
2024/02/15 21:32:18;;;;;;;;;;;;;;;6.84;100.00;95678.56;10443171;28;1640;-69
2024/02/15 21:37:24;;;;;;;;;;;;;;;6.83;100.00;95670.81;10455684;28;1716;-65
2024/02/15 21:42:26;;;;;;;;;;;;;;;6.95;100.00;95668.78;10430104;28;1972;-64
2024/02/15 21:47:29;;;;;;;;;;;;;;;6.85;100.00;95669.50;10453272;28;1598;-65
2024/02/15 21:52:31;;;;;;;;;;;;;;;6.65;100.00;95674.63;10444196;28;1493;-67
2024/02/15 21:57:34;;;;;;;;;;;;;;;6.60;100.00;95663.88;10448648;28;1478;-72
2024/02/15 22:02:37;;;;;;;;;;;;;;;6.61;100.00;95668.16;10447364;28;2306;-72
2024/02/15 22:07:40;;;;;;;;;;;;;;;6.57;100.00;95664.41;10451833;28;1840;-78
2024/02/15 22:12:43;;;;;;;;;;;;;;;6.48;100.00;95664.81;10448791;28;1512;-67
2024/02/15 22:17:45;;;;;;;;;;;;;;;6.42;100.00;95663.16;10442508;28;1478;-64
2024/02/15 22:22:48;;;;;;;;;;;;;;;6.55;100.00;95663.81;10456829;28;1997;-63
2024/02/15 22:27:51;;;;;;;;;;;;;;;6.51;100.00;95660.88;10444294;28;1606;-64
2024/02/15 22:32:55;;;;;;;;;;;;;;;6.39;100.00;95660.19;10449881;28;1534;-68
2024/02/15 22:37:58;;;;;;;;;;;;;;;6.23;100.00;95656.53;10433900;28;1496;-71
2024/02/15 22:43:00;;;;;;;;;;;;;;;6.17;100.00;95646.84;10447469;28;1985;-66
2024/02/15 22:48:03;;;;;;;;;;;;;;;6.16;100.00;95656.72;10448746;28;1392;-64
2024/02/15 22:53:06;;;;;;;;;;;;;;;6.11;100.00;95655.88;10444416;28;1898;-66
2024/02/15 22:58:08;;;;;;;;;;;;;;;6.12;100.00;95655.59;10446597;28;2506;-65
2024/02/15 23:03:11;;;;;;;;;;;;;;;6.14;100.00;95640.16;10447141;28;1925;-66
2024/02/15 23:08:14;;;;;;;;;;;;;;;6.18;100.00;95646.59;10440164;28;1550;-63
2024/02/15 23:13:17;;;;;;;;;;;;;;;6.19;100.00;95644.75;10441503;28;1722;-64
2024/02/15 23:18:22;;;;;;;;;;;;;;;6.08;100.00;95635.81;10441933;28;1513;-63
2024/02/15 23:23:25;;;;;;;;;;;;;;;6.07;100.00;95631.53;10447221;28;1910;-64
2024/02/15 23:28:27;;;;;;;;;;;;;;;6.01;100.00;95629.03;10442882;28;1619;-66
2024/02/15 23:33:30;;;;;;;;;;;;;;;5.95;100.00;95628.97;10440344;28;1447;-65
2024/02/15 23:43:53;;;;;;;;;;;;;;;5.88;100.00;95619.50;10444523;28;1902;-65
2024/02/15 23:48:55;;;;;;;;;;;;;;;5.82;100.00;95625.84;10437159;28;1670;-66
2024/02/15 23:53:58;;;;;;;;;;;;;;;5.69;100.00;95619.81;10438824;28;2548;-69
2024/02/15 23:59:01;;;;;;;;;;;;;;;5.70;100.00;95621.41;10444492;28;1576;-65
